Time;durP1;ratioP1;P1;durP2;ratioP2;P2;SDS_P1;SDS_P2;PMS_P1;PMS_P2;Temp;Humidity;BMP_temperature;BMP_pressure;BME280_temperature;BME280_humidity;BME280_pressure;Samples;Min_cycle;Max_cycle;Signal;HPM_P1;HPM_P2
2023/05/29 00:00:39;;;;;;;;;;;;;;;18.73;43.66;100357.69;5352704;32;37019;-86
2023/05/29 00:03:42;;;;;;;;;;;;;;;18.54;44.05;100351.03;5355601;32;44755;-87
2023/05/29 00:06:47;;;;;;;;;;;;;;;18.23;44.95;100360.38;5331894;32;33577;-87
2023/05/29 00:09:49;;;;;;;;;;;;;;;18.30;46.47;100379.44;5355503;32;34460;-86
2023/05/29 00:12:51;;;;;;;;;;;;;;;18.70;46.36;100360.59;5337783;32;34132;-88
2023/05/29 00:15:53;;;;;;;;;;;;;;;18.06;48.21;100374.03;5356438;32;35149;-85
2023/05/29 00:18:56;;;;;;;;;;;;;;;19.45;44.76;100375.34;5350710;32;34579;-86
2023/05/29 00:21:58;;;;;;;;;;;;;;;18.92;45.81;100361.56;5334415;32;33755;-87
2023/05/29 00:25:00;;;;;;;;;;;;;;;19.29;44.53;100360.62;5350838;32;34620;-85
2023/05/29 00:28:02;;;;;;;;;;;;;;;18.01;47.89;100373.50;5352700;32;35461;-85
2023/05/29 00:31:04;;;;;;;;;;;;;;;17.32;49.67;100389.69;5363536;32;33328;-86
2023/05/29 00:34:06;;;;;;;;;;;;;;;18.59;46.23;100372.84;5371431;32;34277;-85
2023/05/29 00:37:08;;;;;;;;;;;;;;;18.43;46.83;100379.41;5355655;32;34098;-85
2023/05/29 00:40:11;;;;;;;;;;;;;;;18.41;46.97;100379.47;5367320;32;33811;-84
2023/05/29 00:43:13;;;;;;;;;;;;;;;18.29;47.07;100370.59;5356998;32;45203;-84
2023/05/29 00:46:15;;;;;;;;;;;;;;;17.86;47.68;100375.41;5370424;32;32641;-84
2023/05/29 00:49:17;;;;;;;;;;;;;;;17.79;47.76;100380.31;5346365;32;34232;-84
2023/05/29 00:52:20;;;;;;;;;;;;;;;17.73;47.85;100372.75;5360251;32;34215;-85
2023/05/29 00:55:22;;;;;;;;;;;;;;;17.36;48.54;100376.19;5303317;32;1856566;-84
2023/05/29 00:58:24;;;;;;;;;;;;;;;17.51;48.27;100375.13;5348020;32;33065;-85
2023/05/29 01:01:26;;;;;;;;;;;;;;;17.18;49.09;100371.16;5369839;32;34017;-84
2023/05/29 01:04:28;;;;;;;;;;;;;;;18.07;46.76;100365.94;5344771;32;33149;-85
2023/05/29 01:07:31;;;;;;;;;;;;;;;17.78;47.43;100367.13;5372570;32;34066;-86
2023/05/29 01:10:34;;;;;;;;;;;;;;;17.65;47.90;100356.47;5345455;32;34123;-86
2023/05/29 01:13:36;;;;;;;;;;;;;;;17.38;48.43;100363.63;5341858;32;33741;-86
2023/05/29 01:16:41;;;;;;;;;;;;;;;17.85;47.05;100363.94;5362828;32;34276;-85
2023/05/29 01:19:57;;;;;;;;;;;;;;;17.79;47.24;100366.16;5362301;32;44970;-85
2023/05/29 01:22:59;;;;;;;;;;;;;;;18.79;45.00;100354.59;5371524;32;33878;-86
2023/05/29 01:26:14;;;;;;;;;;;;;;;18.95;44.57;100349.84;5359628;32;34062;-86
2023/05/29 01:29:18;;;;;;;;;;;;;;;18.67;45.38;100346.53;5366241;32;46058;-85
2023/05/29 01:32:22;;;;;;;;;;;;;;;18.34;45.80;100339.16;5359683;32;33713;-86
2023/05/29 01:35:25;;;;;;;;;;;;;;;18.43;45.83;100344.81;5346167;32;33678;-86
2023/05/29 01:38:27;;;;;;;;;;;;;;;18.83;45.12;100346.28;5344136;32;35320;-87
2023/05/29 01:41:29;;;;;;;;;;;;;;;17.54;48.34;100349.22;5344871;32;33317;-87
2023/05/29 01:44:31;;;;;;;;;;;;;;;17.48;48.88;100348.78;5355359;32;33760;-86
2023/05/29 01:47:33;;;;;;;;;;;;;;;17.99;47.28;100341.69;5362282;32;33528;-87
2023/05/29 01:50:36;;;;;;;;;;;;;;;17.68;48.39;100342.94;5346252;32;33719;-86
2023/05/29 01:53:38;;;;;;;;;;;;;;;17.78;48.38;100343.22;5357316;32;34211;-86
2023/05/29 01:56:41;;;;;;;;;;;;;;;17.03;50.32;100348.28;5342734;32;33566;-85
2023/05/29 01:59:42;;;;;;;;;;;;;;;16.76;51.17;100350.94;5339855;32;45543;-86
2023/05/29 02:02:44;;;;;;;;;;;;;;;16.58;51.86;100345.00;5357085;32;34944;-86
2023/05/29 02:05:47;;;;;;;;;;;;;;;16.84;51.45;100347.78;5354821;32;33680;-85
2023/05/29 02:08:52;;;;;;;;;;;;;;;17.01;51.08;100336.91;5338687;32;34120;-86
2023/05/29 02:11:55;;;;;;;;;;;;;;;17.06;50.87;100337.44;5341997;32;33239;-86
2023/05/29 02:14:57;;;;;;;;;;;;;;;18.17;47.79;100334.22;5340810;32;34273;-86
2023/05/29 02:18:00;;;;;;;;;;;;;;;17.40;49.69;100336.03;5358604;32;36142;-86
2023/05/29 02:21:03;;;;;;;;;;;;;;;16.84;51.53;100331.87;5371793;32;32981;-84
2023/05/29 02:24:05;;;;;;;;;;;;;;;16.71;51.69;100337.12;5359027;32;33227;-86
2023/05/29 02:27:07;;;;;;;;;;;;;;;16.91;51.23;100333.16;5368801;32;33063;-84
2023/05/29 02:30:09;;;;;;;;;;;;;;;17.28;50.18;100323.59;5366543;32;33351;-86
2023/05/29 02:33:11;;;;;;;;;;;;;;;16.87;51.50;100326.34;5360718;32;44761;-85
2023/05/29 02:36:13;;;;;;;;;;;;;;;17.75;49.23;100332.78;5372225;32;33600;-87
2023/05/29 02:39:15;;;;;;;;;;;;;;;17.28;50.50;100328.91;5345751;32;33131;-85
2023/05/29 02:42:18;;;;;;;;;;;;;;;17.27;50.51;100321.87;5373294;32;33480;-85
2023/05/29 02:45:20;;;;;;;;;;;;;;;17.62;49.44;100330.09;5358447;32;33990;-86
2023/05/29 02:48:22;;;;;;;;;;;;;;;17.09;51.12;100323.97;5363818;32;35886;-85
2023/05/29 02:51:24;;;;;;;;;;;;;;;16.94;51.88;100323.19;5368916;32;34318;-86
2023/05/29 02:54:26;;;;;;;;;;;;;;;17.26;50.94;100318.37;5365793;32;34302;-85
2023/05/29 02:57:28;;;;;;;;;;;;;;;17.03;51.80;100306.66;5360531;32;33981;-85
2023/05/29 03:00:50;;;;;;;;;;;;;;;16.70;52.94;100319.50;5346081;32;33095;-85
2023/05/29 03:03:56;;;;;;;;;;;;;;;17.45;51.19;100312.66;5320841;32;34936;-86
2023/05/29 03:07:01;;;;;;;;;;;;;;;17.18;51.91;100320.69;5329231;32;33786;-86
2023/05/29 03:10:05;;;;;;;;;;;;;;;17.21;52.09;100320.50;5311558;32;33534;-86
2023/05/29 03:13:07;;;;;;;;;;;;;;;17.64;50.64;100320.19;5314017;32;34109;-86
2023/05/29 03:16:09;;;;;;;;;;;;;;;17.30;52.00;100314.53;5327474;32;34169;-86
2023/05/29 03:19:12;;;;;;;;;;;;;;;16.99;52.94;100314.91;5326198;32;45964;-86
2023/05/29 03:22:14;;;;;;;;;;;;;;;16.75;53.36;100317.41;5321488;32;32838;-86
2023/05/29 03:25:16;;;;;;;;;;;;;;;17.17;52.44;100313.69;5327131;32;34136;-86
2023/05/29 03:28:20;;;;;;;;;;;;;;;17.31;51.09;100324.22;5303016;32;35435;-85
2023/05/29 03:31:22;;;;;;;;;;;;;;;17.83;49.80;100325.09;5317895;32;34697;-86
2023/05/29 03:34:25;;;;;;;;;;;;;;;16.97;51.64;100330.09;5325451;32;33582;-87
2023/05/29 03:37:27;;;;;;;;;;;;;;;16.99;52.04;100325.53;5352941;32;33575;-87
2023/05/29 03:40:29;;;;;;;;;;;;;;;17.15;51.83;100333.34;5373529;32;34586;-86
2023/05/29 03:43:31;;;;;;;;;;;;;;;17.50;50.65;100336.25;5360686;32;33926;-85
2023/05/29 03:46:33;;;;;;;;;;;;;;;17.13;51.64;100351.16;5362946;32;36478;-85
2023/05/29 03:49:36;;;;;;;;;;;;;;;16.96;52.13;100345.19;5360637;32;34105;-85
2023/05/29 03:52:38;;;;;;;;;;;;;;;17.32;51.22;100355.16;5361968;32;33830;-85
2023/05/29 03:55:40;;;;;;;;;;;;;;;17.70;50.66;100358.78;5370919;32;33910;-86
2023/05/29 03:58:43;;;;;;;;;;;;;;;17.69;51.26;100357.09;5343226;32;44647;-84
2023/05/29 04:01:45;;;;;;;;;;;;;;;17.51;51.92;100360.03;5372363;32;34508;-84
2023/05/29 04:04:48;;;;;;;;;;;;;;;17.56;52.04;100362.41;5365219;32;33768;-85
2023/05/29 04:07:51;;;;;;;;;;;;;;;17.09;53.78;100357.66;5366232;32;33082;-85
2023/05/29 04:11:05;;;;;;;;;;;;;;;17.23;53.67;100358.41;5336943;32;34224;-84
2023/05/29 04:14:07;;;;;;;;;;;;;;;18.40;50.06;100351.19;5317783;32;33807;-85
2023/05/29 04:17:09;;;;;;;;;;;;;;;16.77;54.78;100363.25;5372607;32;34655;-84
2023/05/29 04:20:12;;;;;;;;;;;;;;;16.95;54.81;100362.06;5357756;32;44717;-85
2023/05/29 04:23:14;;;;;;;;;;;;;;;17.48;53.30;100364.72;5345815;32;33873;-85
2023/05/29 04:26:16;;;;;;;;;;;;;;;18.22;51.28;100358.66;5359896;32;34067;-85
2023/05/29 04:29:19;;;;;;;;;;;;;;;17.99;52.06;100359.47;5348008;32;35024;-85
2023/05/29 04:32:21;;;;;;;;;;;;;;;19.06;48.85;100357.00;5366883;32;33434;-85
2023/05/29 04:35:23;;;;;;;;;;;;;;;18.36;50.84;100353.22;5349569;32;33545;-86
2023/05/29 04:38:26;;;;;;;;;;;;;;;18.36;51.04;100361.22;5354645;32;34236;-85
2023/05/29 04:41:30;;;;;;;;;;;;;;;18.72;49.95;100354.19;5356472;32;33690;-86
2023/05/29 04:44:33;;;;;;;;;;;;;;;19.15;49.14;100353.66;5351532;32;34323;-86
2023/05/29 04:47:36;;;;;;;;;;;;;;;18.00;51.91;100364.66;5358224;32;35188;-85
2023/05/29 04:50:38;;;;;;;;;;;;;;;18.98;49.61;100362.91;5353024;32;34278;-85
2023/05/29 04:53:41;;;;;;;;;;;;;;;20.12;46.81;100358.59;5363412;32;32990;-85
2023/05/29 04:56:43;;;;;;;;;;;;;;;19.88;47.08;100358.69;5343530;32;44522;-85
2023/05/29 04:59:45;;;;;;;;;;;;;;;20.10;46.33;100365.03;5358897;32;33862;-85
2023/05/29 05:02:47;;;;;;;;;;;;;;;20.28;45.30;100367.06;5364874;32;33541;-84
2023/05/29 05:05:49;;;;;;;;;;;;;;;22.62;40.39;100349.94;5369655;32;34809;-85
2023/05/29 05:08:52;;;;;;;;;;;;;;;22.26;40.75;100362.06;5348547;32;34325;-85
2023/05/29 05:11:54;;;;;;;;;;;;;;;22.28;40.41;100359.25;5341248;32;33612;-86
2023/05/29 05:14:56;;;;;;;;;;;;;;;21.67;42.23;100364.59;5354507;32;33599;-86
2023/05/29 05:17:58;;;;;;;;;;;;;;;21.76;41.32;100366.44;5363175;32;34346;-84
2023/05/29 05:21:02;;;;;;;;;;;;;;;22.77;39.22;100358.41;5357277;32;33079;-85
2023/05/29 05:24:06;;;;;;;;;;;;;;;23.34;38.43;100359.44;5337635;32;31826;-85
2023/05/29 05:27:08;;;;;;;;;;;;;;;22.21;40.72;100363.47;5371106;32;33785;-85
2023/05/29 05:30:10;;;;;;;;;;;;;;;22.78;39.50;100368.12;5364841;32;34281;-86
2023/05/29 05:33:12;;;;;;;;;;;;;;;23.49;37.78;100358.00;5363260;32;46371;-85
2023/05/29 05:36:14;;;;;;;;;;;;;;;21.81;41.16;100366.91;5372204;32;33555;-87
2023/05/29 05:39:16;;;;;;;;;;;;;;;23.06;39.50;100358.47;5357784;32;34464;-85
2023/05/29 05:42:19;;;;;;;;;;;;;;;23.10;38.34;100357.19;5372496;32;34252;-85
2023/05/29 05:45:21;;;;;;;;;;;;;;;22.70;39.49;100365.31;5361890;32;33013;-85
2023/05/29 05:48:23;;;;;;;;;;;;;;;24.13;37.04;100364.47;5370397;32;33060;-86
2023/05/29 05:51:25;;;;;;;;;;;;;;;23.98;36.73;100358.75;5364653;32;33762;-86
2023/05/29 05:54:27;;;;;;;;;;;;;;;22.89;39.13;100359.16;5355085;32;33395;-85
2023/05/29 05:57:32;;;;;;;;;;;;;;;24.95;35.12;100357.41;5377987;32;33674;-87
2023/05/29 06:00:34;;;;;;;;;;;;;;;24.30;36.28;100366.41;5361768;32;34259;-86
2023/05/29 06:03:37;;;;;;;;;;;;;;;24.73;35.62;100364.03;5375692;32;33359;-88
2023/05/29 06:06:39;;;;;;;;;;;;;;;23.78;37.39;100374.06;5351521;32;33962;-86
2023/05/29 06:09:42;;;;;;;;;;;;;;;23.68;37.66;100369.72;5367345;32;43205;-86
2023/05/29 06:12:44;;;;;;;;;;;;;;;23.62;37.98;100376.50;5333411;32;33663;-86
2023/05/29 06:15:46;;;;;;;;;;;;;;;24.40;36.57;100374.41;5344556;32;36562;-86
2023/05/29 06:18:51;;;;;;;;;;;;;;;24.33;36.43;100378.66;5370387;32;33921;-86
2023/05/29 06:21:53;;;;;;;;;;;;;;;26.67;32.40;100379.13;5348844;32;34704;-87
2023/05/29 06:24:55;;;;;;;;;;;;;;;25.48;34.18;100386.97;5379148;32;35408;-86
2023/05/29 06:27:58;;;;;;;;;;;;;;;25.21;35.11;100379.84;5353892;32;33802;-87
2023/05/29 06:31:03;;;;;;;;;;;;;;;24.73;35.89;100383.72;5369694;32;33386;-85
2023/05/29 06:34:05;;;;;;;;;;;;;;;26.41;33.29;100384.59;5366389;32;33763;-85
2023/05/29 06:37:08;;;;;;;;;;;;;;;26.00;34.05;100389.72;5354474;32;34890;-85
2023/05/29 06:40:12;;;;;;;;;;;;;;;27.27;31.39;100387.84;5377222;32;34174;-85
2023/05/29 06:43:15;;;;;;;;;;;;;;;25.81;34.39;100392.63;5351718;32;33985;-85
2023/05/29 06:46:17;;;;;;;;;;;;;;;25.44;34.45;100392.81;5350386;32;32977;-85
2023/05/29 06:49:20;;;;;;;;;;;;;;;28.24;30.10;100379.78;5341500;32;35345;-86
2023/05/29 06:52:22;;;;;;;;;;;;;;;28.01;30.68;100375.09;5336208;32;33874;-85
2023/05/29 06:55:28;;;;;;;;;;;;;;;28.96;28.59;100374.22;5367308;32;33802;-87
2023/05/29 06:58:31;;;;;;;;;;;;;;;28.59;28.64;100373.91;5348200;32;34085;-85
2023/05/29 07:01:33;;;;;;;;;;;;;;;29.69;27.74;100379.09;5341424;32;33585;-86
2023/05/29 07:04:42;;;;;;;;;;;;;;;29.03;28.55;100381.44;5351872;32;34534;-92
2023/05/29 07:07:58;;;;;;;;;;;;;;;26.88;31.78;100390.28;5302864;32;34555;-87
2023/05/29 07:11:01;;;;;;;;;;;;;;;27.83;30.28;100382.59;5274428;32;33207;-86
2023/05/29 07:14:03;;;;;;;;;;;;;;;29.09;28.60;100385.28;5287853;32;36128;-85
2023/05/29 07:17:05;;;;;;;;;;;;;;;29.77;27.56;100384.41;5304361;32;33110;-87
2023/05/29 07:20:07;;;;;;;;;;;;;;;30.88;26.06;100382.59;5292444;32;35454;-87
2023/05/29 07:23:10;;;;;;;;;;;;;;;27.18;31.30;100388.00;5291655;32;33992;-87
2023/05/29 07:26:15;;;;;;;;;;;;;;;27.12;32.09;100385.97;5301312;32;44372;-88
2023/05/29 07:29:23;;;;;;;;;;;;;;;26.86;32.73;100395.00;5302882;32;33847;-86
2023/05/29 07:32:25;;;;;;;;;;;;;;;26.80;32.33;100401.06;5304754;32;33032;-87
2023/05/29 07:35:27;;;;;;;;;;;;;;;27.69;31.32;100403.03;5357068;32;31943;-89
2023/05/29 07:38:29;;;;;;;;;;;;;;;28.37;29.85;100400.88;5382958;32;33071;-89
2023/05/29 07:41:37;;;;;;;;;;;;;;;28.44;30.01;100413.50;5363894;32;31982;-87
2023/05/29 07:44:41;;;;;;;;;;;;;;;27.82;31.11;100415.16;5368484;32;33903;-86
2023/05/29 07:47:43;;;;;;;;;;;;;;;28.07;30.80;100409.53;5373951;32;44291;-89
2023/05/29 07:50:46;;;;;;;;;;;;;;;27.75;31.40;100423.09;5370807;32;33697;-87
2023/05/29 07:53:48;;;;;;;;;;;;;;;26.63;33.44;100437.88;5366222;32;32971;-87
2023/05/29 07:56:50;;;;;;;;;;;;;;;26.22;34.37;100439.53;5375856;32;33676;-86
2023/05/29 07:59:53;;;;;;;;;;;;;;;25.69;35.21;100437.75;5379983;32;33902;-86
2023/05/29 08:02:55;;;;;;;;;;;;;;;25.76;35.57;100430.81;5364698;32;33748;-87
2023/05/29 08:05:57;;;;;;;;;;;;;;;25.59;35.68;100431.62;5376834;32;33240;-86
2023/05/29 08:09:00;;;;;;;;;;;;;;;26.34;34.75;100426.59;5369262;32;34587;-88
2023/05/29 08:12:02;;;;;;;;;;;;;;;27.25;33.28;100421.41;5331661;32;33569;-87
2023/05/29 08:15:05;;;;;;;;;;;;;;;30.02;28.55;100412.09;5350755;32;35613;-86
2023/05/29 08:18:07;;;;;;;;;;;;;;;27.82;31.82;100417.84;5373110;32;35130;-85
2023/05/29 08:21:10;;;;;;;;;;;;;;;29.54;29.23;100398.00;5375954;32;34208;-86
2023/05/29 08:24:12;;;;;;;;;;;;;;;28.58;30.62;100406.53;5368762;32;44617;-88
2023/05/29 08:27:14;;;;;;;;;;;;;;;29.85;28.21;100408.72;5377457;32;33235;-90
2023/05/29 08:30:16;;;;;;;;;;;;;;;32.18;25.26;100393.13;5371002;32;33392;-88
2023/05/29 08:33:21;;;;;;;;;;;;;;;32.20;24.72;100396.47;5356523;32;35632;-90
2023/05/29 08:36:23;;;;;;;;;;;;;;;32.25;24.77;100397.56;5380013;32;33700;-91
2023/05/29 08:39:28;;;;;;;;;;;;;;;33.81;22.86;100394.84;5367407;32;33869;-88
2023/05/29 08:42:33;;;;;;;;;;;;;;;33.61;23.20;100389.41;5381945;32;33520;-89
2023/05/29 08:45:36;;;;;;;;;;;;;;;33.96;22.66;100389.22;5344600;32;34791;-91
2023/05/29 08:48:39;;;;;;;;;;;;;;;34.52;22.09;100394.91;5360993;32;34111;-90
2023/05/29 08:51:43;;;;;;;;;;;;;;;34.66;21.78;100395.72;5354447;32;45293;-87
2023/05/29 08:54:45;;;;;;;;;;;;;;;31.63;25.46;100387.53;5370441;32;33024;-87
2023/05/29 08:57:47;;;;;;;;;;;;;;;31.21;26.15;100385.66;5381841;32;33812;-88
2023/05/29 09:00:51;;;;;;;;;;;;;;;32.36;24.83;100382.59;5354409;32;32996;-86
2023/05/29 09:03:55;;;;;;;;;;;;;;;33.85;22.60;100377.84;5377718;32;32708;-90
2023/05/29 09:07:02;;;;;;;;;;;;;;;33.01;23.92;100380.34;5377383;32;33570;-87
2023/05/29 09:10:06;;;;;;;;;;;;;;;33.91;22.71;100379.78;5365694;32;33546;-89
2023/05/29 09:13:09;;;;;;;;;;;;;;;31.93;25.32;100390.06;5360575;32;33383;-91
2023/05/29 09:16:12;;;;;;;;;;;;;;;30.36;27.36;100397.19;5371778;32;45423;-88
2023/05/29 09:19:16;;;;;;;;;;;;;;;32.76;24.50;100378.16;5388972;32;34130;-91
2023/05/29 09:22:18;;;;;;;;;;;;;;;33.35;23.56;100384.78;5360070;32;34973;-87
2023/05/29 09:25:22;;;;;;;;;;;;;;;30.84;27.06;100393.00;5358481;32;34460;-90
2023/05/29 09:28:28;;;;;;;;;;;;;;;31.17;26.95;100381.62;5334164;32;33660;-87
2023/05/29 09:31:33;;;;;;;;;;;;;;;32.04;25.52;100390.34;5349288;32;34237;-89
2023/05/29 09:34:57;;;;;;;;;;;;;;;33.86;22.78;100382.25;5354464;32;35120;-92
2023/05/29 09:38:00;;;;;;;;;;;;;;;32.24;24.40;100384.19;5360986;32;33431;-90
2023/05/29 09:41:06;;;;;;;;;;;;;;;33.08;23.54;100387.47;5375805;32;34952;-88
2023/05/29 09:44:13;;;;;;;;;;;;;;;32.95;23.64;100384.72;5337074;32;34782;-90
2023/05/29 09:47:18;;;;;;;;;;;;;;;30.78;26.83;100392.91;5354817;32;44414;-88
2023/05/29 09:50:25;;;;;;;;;;;;;;;30.28;27.15;100398.12;5351560;32;33850;-89
2023/05/29 09:53:30;;;;;;;;;;;;;;;30.64;26.69;100394.59;5368831;32;33865;-88
2023/05/29 09:56:36;;;;;;;;;;;;;;;30.72;26.72;100400.81;5343541;32;33993;-91
2023/05/29 09:59:43;;;;;;;;;;;;;;;29.38;28.66;100390.84;5360098;32;45379;-87
2023/05/29 10:02:45;;;;;;;;;;;;;;;28.87;29.62;100397.75;5369427;32;34972;-88
2023/05/29 10:05:56;;;;;;;;;;;;;;;30.04;27.83;100401.06;5369805;32;34103;-89
2023/05/29 10:09:00;;;;;;;;;;;;;;;29.79;28.12;100408.59;5368708;32;35483;-89
2023/05/29 10:12:03;;;;;;;;;;;;;;;29.22;29.16;100401.78;5326560;32;33580;-90
2023/05/29 10:15:07;;;;;;;;;;;;;;;28.97;29.59;100411.91;5340807;32;34064;-90
2023/05/29 10:18:22;;;;;;;;;;;;;;;28.39;30.38;100417.75;5365867;32;44503;-89
2023/05/29 10:21:25;;;;;;;;;;;;;;;28.10;31.28;100418.34;5340785;32;34564;-88
2023/05/29 10:24:27;;;;;;;;;;;;;;;28.05;31.67;100411.59;5350558;32;34224;-89
2023/05/29 10:27:32;;;;;;;;;;;;;;;27.84;31.97;100416.69;5359688;32;34263;-88
2023/05/29 10:30:36;;;;;;;;;;;;;;;27.61;32.67;100412.97;5365372;32;33681;-89
2023/05/29 10:33:50;;;;;;;;;;;;;;;27.47;33.30;100418.03;5353079;32;34503;-87
2023/05/29 10:37:16;;;;;;;;;;;;;;;27.52;33.20;100415.66;5350225;32;34649;-91
2023/05/29 10:40:22;;;;;;;;;;;;;;;26.99;34.80;100414.25;5362307;32;46071;-88
2023/05/29 10:43:33;;;;;;;;;;;;;;;26.94;34.81;100410.34;5360949;32;33890;-88
2023/05/29 10:46:57;;;;;;;;;;;;;;;26.76;35.44;100410.47;5347701;32;34168;-90
2023/05/29 10:50:02;;;;;;;;;;;;;;;26.60;35.56;100416.66;5367508;32;34209;-89
2023/05/29 10:53:11;;;;;;;;;;;;;;;26.70;36.00;100397.66;5361550;32;32275;-88
2023/05/29 10:56:21;;;;;;;;;;;;;;;26.29;36.75;100402.84;5369976;32;44852;-88
2023/05/29 10:59:27;;;;;;;;;;;;;;;26.92;35.86;100405.12;5379792;32;34820;-89
2023/05/29 11:02:30;;;;;;;;;;;;;;;26.54;36.44;100414.62;5374028;32;33939;-89
2023/05/29 11:05:32;;;;;;;;;;;;;;;26.58;36.27;100401.62;5369882;32;33247;-87
2023/05/29 11:08:35;;;;;;;;;;;;;;;27.80;33.72;100401.84;5372177;32;33237;-87
2023/05/29 11:11:41;;;;;;;;;;;;;;;26.30;37.24;100404.53;5330392;32;33729;-86
2023/05/29 11:14:47;;;;;;;;;;;;;;;27.80;34.76;100397.28;5331886;32;44251;-88
2023/05/29 11:17:50;;;;;;;;;;;;;;;26.37;36.57;100405.56;5365931;32;33871;-89
2023/05/29 11:20:53;;;;;;;;;;;;;;;28.22;32.77;100400.75;5380940;32;34949;-87
2023/05/29 11:23:57;;;;;;;;;;;;;;;27.85;33.56;100398.62;5368883;32;33765;-87
2023/05/29 11:27:05;;;;;;;;;;;;;;;27.79;33.79;100394.75;5373289;32;33483;-87
2023/05/29 11:30:07;;;;;;;;;;;;;;;26.68;35.27;100394.28;5356282;32;33733;-87
2023/05/29 11:33:11;;;;;;;;;;;;;;;27.93;32.77;100388.66;5371950;32;33572;-86
2023/05/29 11:36:21;;;;;;;;;;;;;;;27.82;32.75;100385.47;5361413;32;43907;-85
2023/05/29 11:39:23;;;;;;;;;;;;;;;27.19;33.80;100393.22;5348211;32;33039;-86
2023/05/29 11:42:25;;;;;;;;;;;;;;;26.56;34.85;100395.56;5376465;32;33894;-88
2023/05/29 11:45:27;;;;;;;;;;;;;;;26.08;36.11;100394.31;5367276;32;33663;-87
2023/05/29 11:48:31;;;;;;;;;;;;;;;27.08;34.07;100381.91;5355048;32;33690;-85
2023/05/29 11:51:33;;;;;;;;;;;;;;;27.31;33.38;100372.16;5370431;32;34723;-89
2023/05/29 11:54:36;;;;;;;;;;;;;;;28.08;31.87;100369.88;5369794;32;34001;-89
2023/05/29 11:57:38;;;;;;;;;;;;;;;27.79;32.35;100363.19;5376442;32;35503;-88
2023/05/29 12:00:42;;;;;;;;;;;;;;;26.45;35.50;100367.06;5363025;32;45426;-86
2023/05/29 12:03:44;;;;;;;;;;;;;;;27.22;34.36;100349.72;5369693;32;34156;-88
2023/05/29 12:06:48;;;;;;;;;;;;;;;26.31;36.03;100351.50;5347145;32;33525;-86
2023/05/29 12:09:52;;;;;;;;;;;;;;;26.96;35.46;100346.28;5358930;32;33463;-88
2023/05/29 12:12:58;;;;;;;;;;;;;;;27.17;34.52;100345.84;5351972;32;36047;-86
2023/05/29 12:16:02;;;;;;;;;;;;;;;27.82;33.11;100337.69;5366429;32;33431;-87
2023/05/29 12:19:04;;;;;;;;;;;;;;;27.25;34.55;100335.06;5376331;32;35762;-89
2023/05/29 12:22:07;;;;;;;;;;;;;;;28.76;31.38;100325.13;5341210;32;33644;-86
2023/05/29 12:25:10;;;;;;;;;;;;;;;28.96;31.13;100329.06;5356268;32;33588;-86
2023/05/29 12:28:17;;;;;;;;;;;;;;;28.80;30.79;100313.78;5366518;32;44897;-85
2023/05/29 12:31:28;;;;;;;;;;;;;;;28.34;31.48;100304.78;5372717;32;35426;-87
2023/05/29 12:34:41;;;;;;;;;;;;;;;29.27;29.71;100312.75;5349390;32;36256;-88
2023/05/29 12:37:57;;;;;;;;;;;;;;;29.04;30.55;100306.53;5364874;32;47066;-85
2023/05/29 12:40:59;;;;;;;;;;;;;;;28.07;30.91;100308.75;5370141;32;33805;-87
2023/05/29 12:44:01;;;;;;;;;;;;;;;28.14;30.89;100312.44;5356007;32;34035;-89
2023/05/29 12:47:03;;;;;;;;;;;;;;;28.93;29.26;100299.69;5377487;32;33490;-87
2023/05/29 12:50:24;;;;;;;;;;;;;;;28.52;29.73;100302.63;5365115;32;34047;-86
2023/05/29 12:53:28;;;;;;;;;;;;;;;27.68;31.62;100304.16;5368011;32;34398;-88
2023/05/29 12:56:32;;;;;;;;;;;;;;;28.38;30.19;100302.56;5366755;32;33962;-86
2023/05/29 12:59:34;;;;;;;;;;;;;;;28.28;29.95;100300.06;5361094;32;33762;-87
2023/05/29 13:02:37;;;;;;;;;;;;;;;29.12;28.79;100298.37;5380192;32;33340;-85
2023/05/29 13:05:42;;;;;;;;;;;;;;;29.66;28.05;100296.31;5349892;32;44677;-85
2023/05/29 13:08:44;;;;;;;;;;;;;;;28.77;29.07;100299.78;5364373;32;33802;-86
2023/05/29 13:11:46;;;;;;;;;;;;;;;29.35;28.24;100292.88;5356434;32;32573;-86
2023/05/29 13:14:48;;;;;;;;;;;;;;;28.95;28.64;100300.34;5354888;32;36312;-86
2023/05/29 13:17:50;;;;;;;;;;;;;;;29.31;27.98;100297.84;5379907;32;33734;-88
2023/05/29 13:20:52;;;;;;;;;;;;;;;29.21;28.46;100301.81;5361741;32;33812;-85
2023/05/29 13:23:56;;;;;;;;;;;;;;;28.20;29.96;100298.22;5378306;32;33763;-85
2023/05/29 13:27:00;;;;;;;;;;;;;;;28.65;29.30;100290.38;5352311;32;33369;-87
2023/05/29 13:30:03;;;;;;;;;;;;;;;28.70;29.49;100285.28;5351365;32;32667;-88
2023/05/29 13:33:05;;;;;;;;;;;;;;;29.26;28.44;100285.88;5354784;32;34991;-86
2023/05/29 13:36:07;;;;;;;;;;;;;;;28.61;28.96;100279.12;5353094;32;34765;-86
2023/05/29 13:39:09;;;;;;;;;;;;;;;29.16;28.19;100283.44;5368114;32;34229;-88
2023/05/29 13:42:11;;;;;;;;;;;;;;;28.61;28.49;100279.12;5348808;32;44604;-85
2023/05/29 13:45:14;;;;;;;;;;;;;;;28.32;28.91;100279.78;5363237;32;33518;-84
2023/05/29 13:48:16;;;;;;;;;;;;;;;28.56;29.00;100274.22;5359883;32;36529;-86
2023/05/29 13:51:18;;;;;;;;;;;;;;;28.52;29.37;100278.31;5364884;32;34172;-88
2023/05/29 13:54:21;;;;;;;;;;;;;;;28.34;29.53;100280.47;5362821;32;34687;-86
2023/05/29 13:57:23;;;;;;;;;;;;;;;28.93;29.00;100274.50;5346173;32;32987;-85
2023/05/29 14:00:26;;;;;;;;;;;;;;;28.67;29.55;100272.16;5377267;32;33528;-87
2023/05/29 14:03:32;;;;;;;;;;;;;;;29.18;28.68;100281.41;5338258;32;33518;-88
2023/05/29 14:06:37;;;;;;;;;;;;;;;30.14;27.16;100263.44;5375537;32;33738;-89
2023/05/29 14:09:41;;;;;;;;;;;;;;;29.40;28.46;100269.66;5352241;32;45411;-86
2023/05/29 14:12:43;;;;;;;;;;;;;;;28.79;29.57;100270.72;5349087;32;33012;-87
2023/05/29 14:15:45;;;;;;;;;;;;;;;30.35;27.13;100252.66;5365823;32;33172;-85
2023/05/29 14:18:48;;;;;;;;;;;;;;;28.97;29.59;100256.88;5374718;32;34044;-87
2023/05/29 14:21:50;;;;;;;;;;;;;;;29.16;29.38;100255.53;5383878;32;33004;-88
2023/05/29 14:24:53;;;;;;;;;;;;;;;29.59;28.99;100262.91;5364237;32;33899;-87
2023/05/29 14:27:56;;;;;;;;;;;;;;;28.87;30.89;100265.22;5379498;32;35797;-86
2023/05/29 14:30:58;;;;;;;;;;;;;;;28.25;31.77;100262.56;5368708;32;34497;-88
2023/05/29 14:34:00;;;;;;;;;;;;;;;28.91;30.95;100261.13;5366935;32;35804;-86
2023/05/29 14:37:02;;;;;;;;;;;;;;;29.01;30.50;100272.56;5360315;32;33862;-85
2023/05/29 14:40:05;;;;;;;;;;;;;;;29.04;29.40;100274.06;5358840;32;34621;-85
2023/05/29 14:43:07;;;;;;;;;;;;;;;27.82;31.27;100274.75;5370602;32;35953;-84
2023/05/29 14:46:09;;;;;;;;;;;;;;;28.40;30.52;100254.56;5358193;32;33655;-85
2023/05/29 14:49:11;;;;;;;;;;;;;;;28.74;30.21;100259.59;5367950;32;44309;-86
2023/05/29 14:52:13;;;;;;;;;;;;;;;28.04;31.47;100266.72;5364365;32;34185;-85
2023/05/29 14:55:15;;;;;;;;;;;;;;;27.42;32.76;100258.44;5346070;32;34908;-85
2023/05/29 14:58:18;;;;;;;;;;;;;;;28.87;30.46;100260.66;5372734;32;35023;-85
2023/05/29 15:01:20;;;;;;;;;;;;;;;28.56;30.72;100257.16;5356396;32;35448;-85
2023/05/29 15:04:22;;;;;;;;;;;;;;;28.17;31.61;100254.50;5372531;32;33930;-88
2023/05/29 15:07:24;;;;;;;;;;;;;;;28.07;31.84;100260.94;5367689;32;34214;-88
2023/05/29 15:10:26;;;;;;;;;;;;;;;27.75;32.37;100259.22;5339401;32;33753;-87
2023/05/29 15:13:29;;;;;;;;;;;;;;;27.16;35.92;100263.22;5336663;32;37092;-89
2023/05/29 15:16:31;;;;;;;;;;;;;;;26.72;41.62;100272.44;5350435;32;35058;-88
2023/05/29 15:19:36;;;;;;;;;;;;;;;26.70;43.39;100261.00;5374824;32;33726;-89
2023/05/29 15:22:38;;;;;;;;;;;;;;;26.20;45.68;100269.97;5362484;32;33603;-88
2023/05/29 15:25:40;;;;;;;;;;;;;;;26.35;42.39;100266.66;5371130;32;34081;-87
2023/05/29 15:28:42;;;;;;;;;;;;;;;26.05;42.53;100263.53;5348016;32;44384;-86
2023/05/29 15:31:44;;;;;;;;;;;;;;;26.05;40.37;100270.75;5362914;32;33415;-87
2023/05/29 15:34:47;;;;;;;;;;;;;;;25.77;38.18;100268.28;5368078;32;34680;-87
2023/05/29 15:37:49;;;;;;;;;;;;;;;27.16;37.45;100265.91;5359293;32;33532;-86
2023/05/29 15:40:52;;;;;;;;;;;;;;;26.73;37.41;100257.16;5371360;32;34165;-85